Date,TemperatureHighF,TemperatureAvgF,TemperatureLowF,DewpointHighF,DewpointAvgF,DewpointLowF,HumidityHigh,HumidityAvg,HumidityLow,PressureMaxIn,PressureMinIn,WindSpeedMaxMPH,WindSpeedAvgMPH,GustSpeedMaxMPH,PrecipitationSumIn
2013-2-1,40.9,24.8,15.2,29.2,20.1,12.3,100,83,62,30.16,29.93,11,2,11,0.00
2013-2-2,32.4,20.3,12.5,25.8,16.3,9.5,92,85,66,30.27,30.15,10,2,10,0.01
2013-2-3,31.3,20.0,12.3,22.3,15.4,8.9,90,82,66,30.15,29.86,21,2,29,0.00
2013-2-4,47.4,34.9,16.2,25.6,20.5,12.5,87,58,38,29.87,29.73,35,14,39,0.00
2013-2-5,40.1,28.1,20.3,26.9,20.6,14.7,85,74,55,29.87,29.69,14,2,14,0.00
2013-2-6,46.6,34.8,20.5,26.7,21.7,15.5,87,60,40,29.99,29.69,21,6,23,0.00
2013-2-7,36.6,25.1,15.0,24.0,17.4,11.2,86,73,54,30.01,29.81,15,3,15,0.00
2013-2-8,44.4,28.4,14.0,23.2,17.4,9.5,88,65,34,29.84,29.73,12,3,14,0.00
2013-2-9,39.9,30.7,22.9,25.3,22.2,16.6,83,71,55,29.76,29.64,19,7,24,0.00
2013-2-10,28.7,23.0,12.1,24.5,17.3,7.3,91,79,61,30.01,29.73,36,12,36,0.00
2013-2-11,29.4,15.2,2.2,16.8,8.1,-1.9,85,74,56,30.00,29.88,19,5,21,0.00
2013-2-12,34.4,18.9,7.3,17.0,10.1,2.7,84,70,46,30.02,29.89,13,3,13,0.00
2013-2-13,45.8,30.0,16.6,28.3,19.9,10.2,89,67,43,29.98,29.82,30,6,30,0.00
2013-2-14,31.7,26.1,21.7,28.3,20.4,16.3,90,79,59,30.25,29.97,30,6,30,0.01
2013-2-15,35.4,24.9,18.3,27.4,20.7,15.3,92,84,69,30.28,30.12,17,4,17,0.02
2013-2-16,41.9,26.1,14.5,27.8,19.0,11.6,89,76,52,30.13,29.73,17,4,17,0.00
2013-2-17,44.4,30.0,17.3,31.3,20.4,13.4,87,69,36,29.86,29.58,27,8,35,0.00
2013-2-18,37.0,26.9,16.7,22.8,18.4,12.2,88,71,45,29.99,29.86,14,5,15,0.00
2013-2-19,36.8,22.3,11.8,20.2,13.6,8.2,87,71,43,29.88,29.61,20,4,21,0.00
2013-2-20,35.9,25.2,17.4,20.9,16.2,10.7,79,69,51,29.74,29.61,22,6,22,0.00
2013-2-21,34.1,24.0,13.6,25.7,18.1,9.7,92,78,62,29.84,29.74,12,2,13,0.01
2013-2-22,35.7,24.0,10.6,22.4,13.9,6.6,92,67,40,29.87,29.60,24,6,25,0.01
2013-2-23,33.8,27.4,20.4,25.4,16.7,12.0,77,64,51,29.84,29.53,23,7,28,0.00
2013-2-24,41.4,29.3,19.2,21.0,16.2,10.5,82,60,28,30.04,29.85,23,10,25,0.02
2013-2-25,39.8,26.6,15.0,19.5,15.4,9.9,82,64,41,29.95,29.73,23,6,23,0.00
2013-2-26,41.6,31.1,20.0,19.1,13.0,7.7,68,48,29,30.12,29.80,28,7,29,0.00
2013-2-27,40.6,26.3,13.2,19.5,13.5,6.4,77,59,38,30.14,30.10,21,6,21,0.00
2013-2-28,43.4,31.1,21.2,20.0,14.3,8.4,77,50,35,30.21,30.11,19,6,21,0.00